Terminal Aerodrome Forecast
Issued by NWS

Home | Current Version | Previous Version | Text Only | Print | Product List | Glossary On
Versions: 1 2 3 4 5 6 7 8 9 10 11 12 13 14 15 16
674
FTUS46 KSEW 281129 AAA
TAFHQM
TAF AMD
KHQM 281129Z 2811/2912 16010KT 5SM -RA BR SCT006 OVC015
      TEMPO 2811/2815 2SM -RA BR OVC006
     FM281500 15012KT 4SM -RA BR OVC022
     FM281900 20012KT 5SM -SHRA BKN025 BKN050
     FM282000 24014KT P6SM -SHRA BKN030 BKN050
     FM290200 26012KT P6SM OVC025=

USA.gov is the U.S. government's official web portal to all federal, state and local government web resources and services.